Aviation Digital Data Service (ADDS)

Output produced by METARs form (0612 UTC 22 February 2017)
found at http://aviationweather.gov/adds/metars/
 
METAR text: GVAC 220600Z 04007KT 9999 BKN014 19/14 Q1016 NOSIG
Conditions at: GVAC observed 0600 UTC 22 February 2017
Temperature: 19.0°C (66°F)
Dewpoint: 14.0°C (57°F) [RH = 73%]
Pressure (altimeter): 30.00 inches Hg (1016.0 mb)
Winds: from the NE (40 degrees) at 8 MPH (7 knots; 3.6 m/s)
Visibility: 6 or more miles (10+ km)
Ceiling: 1400 feet AGL
Clouds: broken clouds at 1400 feet AGL
Weather: no significant weather observed at this time

METAR text: GVAC 220500Z 05007KT 9999 BKN014 19/14 Q1015 NOSIG
Conditions at: GVAC observed 0500 UTC 22 February 2017
Temperature: 19.0°C (66°F)
Dewpoint: 14.0°C (57°F) [RH = 73%]
Pressure (altimeter): 29.97 inches Hg (1015.0 mb)
Winds: from the NE (50 degrees) at 8 MPH (7 knots; 3.6 m/s)
Visibility: 6 or more miles (10+ km)
Ceiling: 1400 feet AGL
Clouds: broken clouds at 1400 feet AGL
Weather: no significant weather observed at this time

METAR text: GVAC 220400Z 05010KT 9999 BKN014 19/13 Q1016 NOSIG
Conditions at: GVAC observed 0400 UTC 22 February 2017
Temperature: 19.0°C (66°F)
Dewpoint: 13.0°C (55°F) [RH = 68%]
Pressure (altimeter): 30.00 inches Hg (1016.0 mb)
Winds: from the NE (50 degrees) at 12 MPH (10 knots; 5.2 m/s)
Visibility: 6 or more miles (10+ km)
Ceiling: 1400 feet AGL
Clouds: broken clouds at 1400 feet AGL
Weather: no significant weather observed at this time

METAR text: GVAC 220300Z 06008KT 9999 BKN014 19/13 Q1016 NOSIG
Conditions at: GVAC observed 0300 UTC 22 February 2017
Temperature: 19.0°C (66°F)
Dewpoint: 13.0°C (55°F) [RH = 68%]
Pressure (altimeter): 30.00 inches Hg (1016.0 mb)
Winds: from the ENE (60 degrees) at 9 MPH (8 knots; 4.2 m/s)
Visibility: 6 or more miles (10+ km)
Ceiling: 1400 feet AGL
Clouds: broken clouds at 1400 feet AGL
Weather: no significant weather observed at this time

METAR text: GVAC 220200Z 05012KT 9999 BKN014 20/14 Q1016 NOSIG
Conditions at: GVAC observed 0200 UTC 22 February 2017
Temperature: 20.0°C (68°F)
Dewpoint: 14.0°C (57°F) [RH = 68%]
Pressure (altimeter): 30.00 inches Hg (1016.0 mb)
Winds: from the NE (50 degrees) at 14 MPH (12 knots; 6.2 m/s)
Visibility: 6 or more miles (10+ km)
Ceiling: 1400 feet AGL
Clouds: broken clouds at 1400 feet AGL
Weather: no significant weather observed at this time

METAR text: GVAC 220100Z 06013KT 9999 BKN014 20/14 Q1017 NOSIG
Conditions at: GVAC observed 0100 UTC 22 February 2017
Temperature: 20.0°C (68°F)
Dewpoint: 14.0°C (57°F) [RH = 68%]
Pressure (altimeter): 30.03 inches Hg (1017.0 mb)
Winds: from the ENE (60 degrees) at 15 MPH (13 knots; 6.8 m/s)
Visibility: 6 or more miles (10+ km)
Ceiling: 1400 feet AGL
Clouds: broken clouds at 1400 feet AGL
Weather: no significant weather observed at this time

METAR text: GVAC 212300Z 06012KT 9999 BKN014 20/14 Q1017 NOSIG
Conditions at: GVAC observed 2300 UTC 21 February 2017
Temperature: 20.0°C (68°F)
Dewpoint: 14.0°C (57°F) [RH = 68%]
Pressure (altimeter): 30.03 inches Hg (1017.0 mb)
Winds: from the ENE (60 degrees) at 14 MPH (12 knots; 6.2 m/s)
Visibility: 6 or more miles (10+ km)
Ceiling: 1400 feet AGL
Clouds: broken clouds at 1400 feet AGL
Weather: no significant weather observed at this time

METAR text: GVAC 212200Z 06011KT 9999 BKN014 20/14 Q1017 NOSIG
Conditions at: GVAC observed 2200 UTC 21 February 2017
Temperature: 20.0°C (68°F)
Dewpoint: 14.0°C (57°F) [RH = 68%]
Pressure (altimeter): 30.03 inches Hg (1017.0 mb)
Winds: from the ENE (60 degrees) at 13 MPH (11 knots; 5.7 m/s)
Visibility: 6 or more miles (10+ km)
Ceiling: 1400 feet AGL
Clouds: broken clouds at 1400 feet AGL
Weather: no significant weather observed at this time

METAR text: GVAC 212100Z 06011KT 9999 BKN014 21/15 Q1016 NOSIG
Conditions at: GVAC observed 2100 UTC 21 February 2017
Temperature: 21.0°C (70°F)
Dewpoint: 15.0°C (59°F) [RH = 69%]
Pressure (altimeter): 30.00 inches Hg (1016.0 mb)
Winds: from the ENE (60 degrees) at 13 MPH (11 knots; 5.7 m/s)
Visibility: 6 or more miles (10+ km)
Ceiling: 1400 feet AGL
Clouds: broken clouds at 1400 feet AGL
Weather: no significant weather observed at this time

METAR text: GVAC 212000Z 04011KT 9999 BKN014 21/15 Q1016 NOSIG
Conditions at: GVAC observed 2000 UTC 21 February 2017
Temperature: 21.0°C (70°F)
Dewpoint: 15.0°C (59°F) [RH = 69%]
Pressure (altimeter): 30.00 inches Hg (1016.0 mb)
Winds: from the NE (40 degrees) at 13 MPH (11 knots; 5.7 m/s)
Visibility: 6 or more miles (10+ km)
Ceiling: 1400 feet AGL
Clouds: broken clouds at 1400 feet AGL
Weather: no significant weather observed at this time

METAR text: GVAC 211900Z 05013KT 9999 SCT014 21/14 Q1015 NOSIG
Conditions at: GVAC observed 1900 UTC 21 February 2017
Temperature: 21.0°C (70°F)
Dewpoint: 14.0°C (57°F) [RH = 64%]
Pressure (altimeter): 29.97 inches Hg (1015.0 mb)
Winds: from the NE (50 degrees) at 15 MPH (13 knots; 6.8 m/s)
Visibility: 6 or more miles (10+ km)
Ceiling: at least 12,000 feet AGL
Clouds: scattered clouds at 1400 feet AGL
Weather: no significant weather observed at this time